Staves, Arkansas
Current Conditions -  °F | °C
As of 11:53 PM on Thursday 30 Oct 2014 (Local Time) from KPBF Reporting Station
Clear Clear  
Wind Chill: 56°   Ceiling: Unl
Heat Index: 56°   Visibility: 10mi
Dew Point: 48°   Wind: 5mph
Humidity: 75%   Direction: 280°W
Pressure: 30.04"   Gusts: NA
Location:  33.947°N, 92.1633°W
Report Text: KPBF 310453Z AUTO 28004KT 10SM CLR 13/09 A3004 RMK AO2 SLP172 T01330089
Loading
Personal Weather Stations






























Interactive Weather Map
Tropical Storm Tracking
New forecast layout! Learn more

10-Day Weather Forecast

Advertisements
Track Severe Weather on mobile